createdAt,value
2022-10-16T00:08:34.221Z,0
2022-10-16T00:18:11.407Z,0
2022-10-16T00:27:48.484Z,0
2022-10-16T00:47:02.488Z,0
2022-10-16T00:56:38.831Z,0
2022-10-16T01:06:16.044Z,0
2022-10-16T01:15:52.388Z,0
2022-10-16T01:25:29.284Z,0
2022-10-16T01:35:06.363Z,0
2022-10-16T01:44:43.561Z,0
2022-10-16T02:03:57.459Z,0
2022-10-16T02:13:34.748Z,0
2022-10-16T02:23:12.209Z,0
2022-10-16T02:32:49.036Z,0
2022-10-16T02:42:26.436Z,0
2022-10-16T02:52:03.354Z,0
2022-10-16T03:01:40.864Z,0
2022-10-16T03:11:18.420Z,0
2022-10-16T03:20:55.975Z,0
2022-10-16T03:30:33.272Z,0
2022-10-16T03:40:10.243Z,0
2022-10-16T03:49:47.087Z,0
2022-10-16T03:59:24.127Z,0
2022-10-16T04:09:01.360Z,0
2022-10-16T04:18:38.244Z,0
2022-10-16T04:37:52.965Z,0
2022-10-16T04:47:30.468Z,0
2022-10-16T05:16:23.016Z,0
2022-10-16T05:25:59.950Z,0
2022-10-16T05:35:37.151Z,0
2022-10-16T05:45:14.465Z,5.63
2022-10-16T05:54:52.119Z,16.88
2022-10-16T06:04:30.007Z,28.13
2022-10-16T06:14:07.283Z,33.75
2022-10-16T06:33:23.227Z,123.75
2022-10-16T06:43:01.275Z,112.5
2022-10-16T06:52:39.400Z,168.75
2022-10-16T07:02:16.223Z,135
2022-10-16T07:11:53.910Z,123.75
2022-10-16T07:21:30.645Z,146.25
2022-10-16T07:31:07.871Z,185.63
2022-10-16T07:40:45.699Z,168.75
2022-10-16T07:50:24.353Z,247.5
2022-10-16T08:00:01.761Z,140.63
2022-10-16T08:09:39.419Z,168.75
2022-10-16T08:19:17.821Z,191.25
2022-10-16T08:28:55.396Z,146.25
2022-10-16T08:38:33.133Z,157.5
2022-10-16T08:48:10.659Z,286.88
2022-10-16T08:57:49.514Z,241.88
2022-10-16T09:07:28.408Z,405
2022-10-16T09:17:06.235Z,337.5
2022-10-16T09:26:44.555Z,315
2022-10-16T09:36:22.631Z,388.13
2022-10-16T09:46:00.004Z,421.88
2022-10-16T09:55:39.265Z,286.88
2022-10-16T10:05:16.156Z,253.13
2022-10-16T10:24:32.304Z,495
2022-10-16T10:34:11.858Z,810
2022-10-16T10:43:52.721Z,376.88
2022-10-16T10:53:27.261Z,241.88
2022-10-16T11:22:16.921Z,135
2022-10-16T11:31:54.279Z,157.5
2022-10-16T11:41:32.667Z,573.75
2022-10-16T11:51:13.375Z,720
2022-10-16T12:00:51.675Z,472.5
2022-10-16T12:20:25.694Z,4201.88
2022-10-16T12:30:13.120Z,3588.75
2022-10-16T12:39:33.707Z,675
2022-10-16T12:49:06.323Z,455.63
2022-10-16T12:58:33.434Z,562.5
2022-10-16T13:08:08.454Z,410.63
2022-10-16T13:17:43.035Z,590.63
2022-10-16T13:37:24.597Z,613.13
2022-10-16T13:46:48.845Z,489.38
2022-10-16T13:56:46.644Z,2773.13
2022-10-16T14:06:07.655Z,3155.63
2022-10-16T14:15:48.341Z,371.25
2022-10-16T14:25:21.495Z,455.63
2022-10-16T14:34:56.787Z,348.75
2022-10-16T14:44:29.032Z,320.63
2022-10-16T14:54:06.849Z,427.5
2022-10-16T15:03:50.672Z,1338.75
2022-10-16T15:13:21.755Z,225
2022-10-16T15:22:55.559Z,168.75
2022-10-16T15:42:06.932Z,73.13
2022-10-16T15:51:43.288Z,56.25
2022-10-16T16:01:19.669Z,45
2022-10-16T16:10:56.130Z,28.13
2022-10-16T16:20:31.946Z,11.25
2022-10-16T16:30:07.884Z,0
2022-10-16T16:49:20.586Z,0
2022-10-16T16:58:57.094Z,0
2022-10-16T17:08:33.677Z,0
2022-10-16T17:27:47.837Z,0
2022-10-16T17:37:25.338Z,0
2022-10-16T17:47:02.677Z,0
2022-10-16T17:56:39.621Z,0
2022-10-16T18:06:20.244Z,0
2022-10-16T18:15:53.497Z,0
2022-10-16T18:25:30.419Z,0
2022-10-16T18:44:43.533Z,0
2022-10-16T18:54:20.572Z,0
2022-10-16T19:03:56.963Z,0
2022-10-16T19:13:33.953Z,0
2022-10-16T19:32:47.874Z,0
2022-10-16T19:42:24.889Z,0
2022-10-16T19:52:02.158Z,0
2022-10-16T20:01:38.331Z,0
2022-10-16T20:11:14.976Z,0
2022-10-16T20:20:52.115Z,0
2022-10-16T20:30:28.804Z,0
2022-10-16T20:40:06.080Z,0
2022-10-16T20:49:43.027Z,0
2022-10-16T20:59:20.259Z,0
2022-10-16T21:18:35.566Z,0
2022-10-16T21:28:12.841Z,0
2022-10-16T21:37:50.204Z,0
2022-10-16T21:47:27.643Z,0
2022-10-16T22:06:42.123Z,0
2022-10-16T22:16:19.435Z,0
2022-10-16T22:25:56.306Z,0
2022-10-16T22:35:33.301Z,0
2022-10-16T22:45:10.623Z,0
2022-10-16T22:54:47.258Z,0
2022-10-16T23:14:00.630Z,0
2022-10-16T23:23:37.188Z,0
2022-10-16T23:33:14.007Z,0
2022-10-16T23:42:50.859Z,0
2022-10-16T23:52:28.766Z,0
